Sea's The Dream — WDG5070 — position and weather

sailwx.info

Track history (hours):
 
Tides and Currents Weather Stations Pressure Air Temp Water Temp Dewpoint Dewpoint Depression Visibility Wind Speed Wind Dir Waves Ship Positions

Sea's The Dream

Owner: Sail Your Way Cruises, LLC, Boise, ID. More information available from US FCC via Universal Licensing System.

Last reported at 2018-Jun-21 23:22 UTC. Time now 2018-Jun-25 05:47 UTC.
Position N 48°40' W 122°33'.

Length 14 m.

Type: Pleasure craft. MMSI: 367542970.

Date/timePositionNaut miles runAvg speedWind from/ knotsBaromVisibWave heightAir tempDewpointWater temp
2018-Jun-21 23:22N 48°40' W 122°33'2 4.4
2018-Jun-21 22:59N 48°39' W 122°35'2 4.4
2018-Jun-21 22:30N 48°38' W 122°37'4 4.7
2018-Jun-21 21:34N 48°36' W 122°44'0 6.2
2018-Jun-21 21:30N 48°36' W 122°44'3 5.9
2018-Jun-21 21:00N 48°35' W 122°49'3 5.0
2018-Jun-21 20:30N 48°35' W 122°52'2 4.0
2018-Jun-21 20:00N 48°35' W 122°55'2 4.2
2018-Jun-21 19:24N 48°36' W 122°59'2 4.2
2018-Jun-21 18:58N 48°37' W 123°02'6 0.3
2018-Jun-20 22:23N 48°37' W 123°10'2 4.3
2018-Jun-20 21:51N 48°39' W 123°12'2 4.7
2018-Jun-20 21:30N 48°40' W 123°14'2 3.0
2018-Jun-20 20:59N 48°39' W 123°13'2 3.7
2018-Jun-20 20:24N 48°38' W 123°16'6 7.1
2018-Jun-20 19:29N 48°43' W 123°24'4 5.5
2018-Jun-20 18:42N 48°40' W 123°29'1 6.8
2018-Jun-20 18:30N 48°39' W 123°29'3 0.1
2018-Jun-19 21:15N 48°36' W 123°29'2 6.8
2018-Jun-19 20:57N 48°38' W 123°30'3 5.9
2018-Jun-19 20:30N 48°41' W 123°30'2 3.7
2018-Jun-19 20:00N 48°42' W 123°28'2 4.7
2018-Jun-19 19:30N 48°43' W 123°25'1 2.5
2018-Jun-19 19:00N 48°42' W 123°23'2 4.4
2018-Jun-19 18:30N 48°42' W 123°20'4 5.4
2018-Jun-19 17:51N 48°43' W 123°15'1 1.4
2018-Jun-19 16:46N 48°44' W 123°13'2 5.5
2018-Jun-19 16:30N 48°44' W 123°11'24 0.6
2018-Jun-17 22:28N 48°41' W 122°34'2 5.4
2018-Jun-17 22:00N 48°39' W 122°36'3 4.7
2018-Jun-17 21:26N 48°37' W 122°38'3 5.1
2018-Jun-17 20:47N 48°37' W 122°43'1 3.9
2018-Jun-17 20:30N 48°36' W 122°44'1 2.3
2018-Jun-17 20:00N 48°36' W 122°46'1 2.8
2018-Jun-17 19:29N 48°36' W 122°48'2 4.3
2018-Jun-17 19:00N 48°35' W 122°51'2 3.5
2018-Jun-17 18:30N 48°35' W 122°54'3 4.8
2018-Jun-17 17:58N 48°36' W 122°57'3 5.4
2018-Jun-17 17:29N 48°36' W 123°01'13 0.6
2018-Jun-16 18:11N 48°36' W 122°41'1 5.1
2018-Jun-16 18:00N 48°36' W 122°40'4 6.8
2018-Jun-16 17:29N 48°38' W 122°36'3 0.2
2018-Jun-15 23:59N 48°40' W 122°33'2 5.1
2018-Jun-15 23:30N 48°38' W 122°35'4 6.6
2018-Jun-15 22:57N 48°36' W 122°40'2 5.0
2018-Jun-15 22:29N 48°37' W 122°43'2 4.4
2018-Jun-15 22:00N 48°36' W 122°46'2 3.7
2018-Jun-15 21:28N 48°35' W 122°49'3 5.5
2018-Jun-15 21:00N 48°35' W 122°53'1 3.0
2018-Jun-15 20:30N 48°35' W 122°55'3 5.9
2018-Jun-15 19:59N 48°35' W 122°60'3 0.2
2018-Jun-14 23:40N 48°38' W 123°02'9 0.7
2018-Jun-14 09:53N 48°46' W 122°55'  
Track history (hours):
 
Tides and Currents Weather Stations Pressure Air Temp Water Temp Dewpoint Dewpoint Depression Visibility Wind Speed Wind Dir Waves Ship Positions

Sea's The Dream

Owner: Sail Your Way Cruises, LLC, Boise, ID. More information available from US FCC via Universal Licensing System.

Last reported at 2018-Jun-21 23:22 UTC. Time now 2018-Jun-25 05:47 UTC.
Position N 48°40' W 122°33'.

Length 14 m.

Type: Pleasure craft. MMSI: 367542970.

Date/timePositionNaut miles runAvg speedWind from/ knotsBaromVisibWave heightAir tempDewpointWater temp
2018-Jun-21 23:22N 48°40' W 122°33'2 4.4
2018-Jun-21 22:59N 48°39' W 122°35'2 4.4
2018-Jun-21 22:30N 48°38' W 122°37'4 4.7
2018-Jun-21 21:34N 48°36' W 122°44'0 6.2
2018-Jun-21 21:30N 48°36' W 122°44'3 5.9
2018-Jun-21 21:00N 48°35' W 122°49'3 5.0
2018-Jun-21 20:30N 48°35' W 122°52'2 4.0
2018-Jun-21 20:00N 48°35' W 122°55'2 4.2
2018-Jun-21 19:24N 48°36' W 122°59'2 4.2
2018-Jun-21 18:58N 48°37' W 123°02'6 0.3
2018-Jun-20 22:23N 48°37' W 123°10'2 4.3
2018-Jun-20 21:51N 48°39' W 123°12'2 4.7
2018-Jun-20 21:30N 48°40' W 123°14'2 3.0
2018-Jun-20 20:59N 48°39' W 123°13'2 3.7
2018-Jun-20 20:24N 48°38' W 123°16'6 7.1
2018-Jun-20 19:29N 48°43' W 123°24'4 5.5
2018-Jun-20 18:42N 48°40' W 123°29'1 6.8
2018-Jun-20 18:30N 48°39' W 123°29'3 0.1
2018-Jun-19 21:15N 48°36' W 123°29'2 6.8
2018-Jun-19 20:57N 48°38' W 123°30'3 5.9
2018-Jun-19 20:30N 48°41' W 123°30'2 3.7
2018-Jun-19 20:00N 48°42' W 123°28'2 4.7
2018-Jun-19 19:30N 48°43' W 123°25'1 2.5
2018-Jun-19 19:00N 48°42' W 123°23'2 4.4
2018-Jun-19 18:30N 48°42' W 123°20'4 5.4
2018-Jun-19 17:51N 48°43' W 123°15'1 1.4
2018-Jun-19 16:46N 48°44' W 123°13'2 5.5
2018-Jun-19 16:30N 48°44' W 123°11'24 0.6
2018-Jun-17 22:28N 48°41' W 122°34'2 5.4
2018-Jun-17 22:00N 48°39' W 122°36'3 4.7
2018-Jun-17 21:26N 48°37' W 122°38'3 5.1
2018-Jun-17 20:47N 48°37' W 122°43'1 3.9
2018-Jun-17 20:30N 48°36' W 122°44'1 2.3
2018-Jun-17 20:00N 48°36' W 122°46'1 2.8
2018-Jun-17 19:29N 48°36' W 122°48'2 4.3
2018-Jun-17 19:00N 48°35' W 122°51'2 3.5
2018-Jun-17 18:30N 48°35' W 122°54'3 4.8
2018-Jun-17 17:58N 48°36' W 122°57'3 5.4
2018-Jun-17 17:29N 48°36' W 123°01'13 0.6
2018-Jun-16 18:11N 48°36' W 122°41'1 5.1
2018-Jun-16 18:00N 48°36' W 122°40'4 6.8
2018-Jun-16 17:29N 48°38' W 122°36'3 0.2
2018-Jun-15 23:59N 48°40' W 122°33'2 5.1
2018-Jun-15 23:30N 48°38' W 122°35'4 6.6
2018-Jun-15 22:57N 48°36' W 122°40'2 5.0
2018-Jun-15 22:29N 48°37' W 122°43'2 4.4
2018-Jun-15 22:00N 48°36' W 122°46'2 3.7
2018-Jun-15 21:28N 48°35' W 122°49'3 5.5
2018-Jun-15 21:00N 48°35' W 122°53'1 3.0
2018-Jun-15 20:30N 48°35' W 122°55'3 5.9
2018-Jun-15 19:59N 48°35' W 122°60'3 0.2
2018-Jun-14 23:40N 48°38' W 123°02'9 0.7
2018-Jun-14 09:53N 48°46' W 122°55'  

Dump ship's entire track history